Terminal Aerodrome Forecast
Issued by NWS

Home | Current Version | Previous Version | Text Only | Print | Product List | Glossary On
Versions: 1 2 3 4 5 6 7 8 9 10
000
FTUS42 KGSP 282340
TAFAND
TAF
KAND 282340Z 2900/2924 19003KT P6SM OVC007
     FM290400 00000KT 5SM -RA BR OVC005
     FM290600 03003KT 2SM -RA BR OVC002
     FM291400 05003KT 4SM BR OVC004
     FM291800 02003KT P6SM OVC008=

USA.gov is the U.S. government's official web portal to all federal, state and local government web resources and services.